Time;durP1;ratioP1;P1;durP2;ratioP2;P2;SDS_P1;SDS_P2;PMS_P1;PMS_P2;Temp;Humidity;BMP_temperature;BMP_pressure;BME280_temperature;BME280_humidity;BME280_pressure;Samples;Min_cycle;Max_cycle;Signal;HPM_P1;HPM_P2
2021/01/13 07:23:22;;;;;;;15.67;7.27;;;4.00;99.90;;;;;;1255759;23;20753;-83
2021/01/13 07:29:03;;;;;;;16.37;7.67;;;3.80;99.90;;;;;;4993967;28;20498;-84
2021/01/13 07:31:35;;;;;;;15.17;7.23;;;3.60;99.90;;;;;;4997010;28;20435;-87
2021/01/13 07:37:50;;;;;;;17.00;8.20;;;3.60;99.90;;;;;;4977546;28;20480;-87
2021/01/13 07:44:31;;;;;;;16.23;7.60;;;3.80;99.90;;;;;;5060736;23;20514;-86
2021/01/13 08:46:12;;;;;;;20.40;8.53;;;4.10;99.90;;;;;;3449032;22;20448;31
2021/01/13 18:29:14;;;;;;;50.20;27.13;;;6.20;99.90;;;;;;5190952;22;21043;-84
2021/01/13 18:34:47;;;;;;;46.13;27.90;;;6.50;99.90;;;;;;5411966;22;20697;-85
2021/01/13 18:57:15;;;;;;;57.53;31.27;;;6.50;99.90;;;;;;4995307;28;20279;-85
2021/01/13 19:06:25;;;;;;;50.10;29.87;;;6.40;99.90;;;;;;5151258;23;20239;-85
2021/01/13 19:12:18;;;;;;;51.13;26.97;;;6.50;99.90;;;;;;5017892;28;20220;-85
2021/01/13 19:14:45;;;;;;;38.13;23.37;;;6.50;99.90;;;;;;5012766;28;20200;-85
2021/01/13 19:17:17;;;;;;;39.10;22.33;;;6.20;99.90;;;;;;5009378;28;20229;-85
2021/01/13 19:19:51;;;;;;;38.90;23.23;;;6.00;99.90;;;;;;4977994;28;20244;-85
2021/01/13 19:22:23;;;;;;;40.53;21.40;;;6.10;99.90;;;;;;4974676;28;20208;-85
2021/01/13 19:24:56;;;;;;;38.87;21.80;;;6.00;99.90;;;;;;5084688;23;20263;-84
2021/01/13 19:27:24;;;;;;;32.83;19.17;;;6.00;99.90;;;;;;4993950;28;20224;-84
2021/01/13 19:29:51;;;;;;;30.53;17.90;;;5.80;99.90;;;;;;5011260;28;20208;-85
2021/01/13 19:32:19;;;;;;;28.30;17.50;;;5.80;99.90;;;;;;5010995;28;20546;-84
2021/01/13 19:34:50;;;;;;;25.87;17.10;;;5.70;99.90;;;;;;5045945;22;20508;-85
2021/01/13 19:40:02;;;;;;;19.27;13.40;;;5.70;99.90;;;;;;5011001;28;20286;-85
2021/01/13 19:42:32;;;;;;;21.93;14.17;;;5.90;99.90;;;;;;5011687;28;20216;-85
2021/01/13 19:47:55;;;;;;;20.30;13.10;;;5.90;99.90;;;;;;5159547;22;20298;-86
2021/01/13 19:50:40;;;;;;;19.30;13.47;;;5.90;99.90;;;;;;4997289;28;20200;-86
2021/01/13 19:53:11;;;;;;;20.17;15.00;;;5.90;99.90;;;;;;5013040;28;20676;-85
2021/01/13 19:55:48;;;;;;;19.33;12.87;;;6.10;99.90;;;;;;5012165;28;20212;-85
2021/01/13 19:58:19;;;;;;;21.67;14.13;;;6.20;99.90;;;;;;5012948;28;20278;-85
2021/01/13 20:01:05;;;;;;;18.47;12.70;;;6.10;99.90;;;;;;4998134;28;20228;-86
2021/01/13 20:03:38;;;;;;;14.57;10.37;;;6.10;99.90;;;;;;4997075;28;20183;-86
2021/01/13 20:06:09;;;;;;;15.20;10.57;;;6.10;99.90;;;;;;5013334;28;20219;-86
2021/01/13 20:08:38;;;;;;;10.90;7.87;;;6.30;99.90;;;;;;4996696;28;20255;-86
2021/01/13 20:11:12;;;;;;;11.33;7.77;;;6.20;99.90;;;;;;5013165;28;20227;-86
2021/01/13 20:13:44;;;;;;;10.30;7.60;;;6.00;99.90;;;;;;5013221;28;20565;-86
2021/01/13 20:16:18;;;;;;;9.73;7.23;;;5.90;99.90;;;;;;5060430;22;20232;-86
2021/01/13 20:18:52;;;;;;;11.23;6.70;;;5.70;99.90;;;;;;5012942;28;20466;-85
2021/01/13 20:21:19;;;;;;;8.10;6.13;;;5.70;99.90;;;;;;4995084;28;20224;-86
2021/01/13 20:23:52;;;;;;;7.27;6.10;;;5.60;99.90;;;;;;5011224;28;20501;-85
2021/01/13 20:26:25;;;;;;;10.10;6.43;;;5.50;99.90;;;;;;5011908;28;20470;-86
2021/01/13 20:28:54;;;;;;;8.83;6.27;;;5.40;99.90;;;;;;5011497;28;20473;-86
2021/01/13 20:31:25;;;;;;;8.83;6.37;;;5.20;99.90;;;;;;5011644;28;20446;-85
2021/01/13 20:33:55;;;;;;;7.53;5.97;;;5.20;99.90;;;;;;5012692;28;20442;-85
2021/01/13 20:36:23;;;;;;;7.50;5.63;;;5.30;99.90;;;;;;5012808;28;20434;-85
2021/01/13 20:38:56;;;;;;;7.50;6.00;;;5.40;99.90;;;;;;5013266;28;20288;-86
2021/01/13 20:41:28;;;;;;;6.30;5.20;;;5.40;99.90;;;;;;5010595;28;20481;-86
2021/01/13 20:43:56;;;;;;;11.37;5.50;;;5.60;99.90;;;;;;5010598;28;20438;-85
2021/01/13 20:46:26;;;;;;;6.63;5.40;;;5.50;99.90;;;;;;5011262;28;20462;-85
2021/01/13 20:48:54;;;;;;;7.53;5.80;;;5.60;99.90;;;;;;5010857;28;20477;-86
2021/01/13 20:51:29;;;;;;;9.00;6.27;;;5.50;99.90;;;;;;5012187;28;20474;-85
2021/01/13 20:53:57;;;;;;;8.63;6.30;;;5.40;99.90;;;;;;5010178;28;20472;-85
2021/01/13 20:56:29;;;;;;;6.83;5.97;;;5.50;99.90;;;;;;5012523;28;20418;-86
2021/01/13 20:58:57;;;;;;;6.17;5.10;;;5.50;99.90;;;;;;5012379;28;20497;-86
2021/01/13 21:01:27;;;;;;;10.00;6.37;;;5.40;99.90;;;;;;5012038;28;20477;-85
2021/01/13 21:03:57;;;;;;;8.53;5.63;;;5.30;99.90;;;;;;4995374;28;20525;-85
2021/01/13 21:06:30;;;;;;;7.13;5.57;;;5.40;99.90;;;;;;5012689;28;20466;-86
2021/01/13 21:09:01;;;;;;;7.07;5.23;;;5.20;99.90;;;;;;5013434;28;20466;-86
2021/01/13 21:11:36;;;;;;;8.73;5.77;;;5.50;99.90;;;;;;4997231;28;20196;-86
2021/01/13 21:14:11;;;;;;;8.73;6.13;;;5.40;99.90;;;;;;5012472;28;20477;-86
2021/01/13 21:16:39;;;;;;;6.93;5.13;;;5.50;99.90;;;;;;5012469;28;20242;-85
2021/01/13 21:19:11;;;;;;;7.17;4.70;;;5.40;99.90;;;;;;5011877;28;20537;-86
2021/01/13 21:21:42;;;;;;;7.90;4.60;;;5.50;99.90;;;;;;5012566;28;20468;-86
2021/01/13 21:24:21;;;;;;;7.53;5.00;;;5.20;99.90;;;;;;5013386;28;20452;-86
2021/01/13 21:27:08;;;;;;;9.30;4.93;;;5.30;99.90;;;;;;5016915;28;20211;-86
2021/01/13 21:29:40;;;;;;;7.57;4.83;;;5.10;99.90;;;;;;5018660;28;20444;-86
2021/01/13 21:32:12;;;;;;;4.60;4.20;;;5.10;99.90;;;;;;5018071;28;20189;-86
2021/01/13 21:34:47;;;;;;;5.77;4.13;;;5.20;99.90;;;;;;5017644;28;20442;-86
2021/01/13 21:37:18;;;;;;;7.27;4.50;;;5.30;99.90;;;;;;5019228;28;20457;-86
2021/01/13 21:40:08;;;;;;;5.43;4.33;;;5.20;99.90;;;;;;5018677;28;20501;-86
2021/01/13 21:42:45;;;;;;;6.40;4.43;;;5.10;99.90;;;;;;5018503;28;20192;-85
2021/01/13 21:45:16;;;;;;;6.57;4.83;;;5.20;99.90;;;;;;5001126;28;20228;-86
2021/01/13 21:47:46;;;;;;;8.83;4.50;;;5.30;99.90;;;;;;5015591;28;20230;-85
2021/01/13 21:50:22;;;;;;;7.30;4.77;;;5.40;99.90;;;;;;5014729;28;20450;-85
2021/01/13 21:52:55;;;;;;;8.07;4.57;;;5.40;99.90;;;;;;5000779;28;20477;-85
2021/01/13 21:58:21;;;;;;;4.70;4.30;;;5.40;99.90;;;;;;5016715;28;20235;-85
2021/01/13 22:00:54;;;;;;;6.10;4.70;;;5.40;99.90;;;;;;5015237;28;20516;-86
2021/01/13 22:03:32;;;;;;;5.53;5.03;;;5.50;99.90;;;;;;4999672;28;20208;-85
2021/01/13 22:06:01;;;;;;;7.73;5.03;;;5.40;99.90;;;;;;5016755;28;20473;-85
2021/01/13 22:08:34;;;;;;;6.60;4.90;;;5.30;99.90;;;;;;5000550;28;20224;-85
2021/01/13 22:11:18;;;;;;;7.00;5.50;;;5.30;99.90;;;;;;5006006;28;20435;-86
2021/01/13 22:16:59;;;;;;;7.43;5.60;;;5.10;99.90;;;;;;5001410;28;20225;-86
2021/01/13 22:19:36;;;;;;;10.70;6.10;;;5.20;99.90;;;;;;5006078;28;20224;-86
2021/01/13 22:22:07;;;;;;;10.63;5.67;;;5.40;99.90;;;;;;5014668;28;20474;-85
2021/01/13 22:24:37;;;;;;;9.63;6.13;;;5.40;99.90;;;;;;5015984;28;20221;-86
2021/01/13 22:33:26;;;;;;;16.03;7.83;;;5.40;99.90;;;;;;5039269;23;20475;-85
2021/01/13 22:35:53;;;;;;;13.00;8.00;;;5.20;99.90;;;;;;5012100;28;20493;-85
2021/01/13 22:38:20;;;;;;;13.80;8.17;;;5.20;99.90;;;;;;4996131;28;20220;-85
2021/01/13 22:40:48;;;;;;;12.60;9.23;;;5.40;99.90;;;;;;5015319;28;20235;-85
2021/01/13 22:43:16;;;;;;;15.87;9.27;;;5.40;99.90;;;;;;4999274;28;20465;-86
2021/01/13 22:45:51;;;;;;;18.50;10.37;;;5.40;99.90;;;;;;4998179;28;20438;-85
2021/01/13 22:48:20;;;;;;;18.70;10.97;;;5.20;99.90;;;;;;5015767;28;20482;-86
2021/01/13 22:50:49;;;;;;;17.80;11.20;;;5.20;99.90;;;;;;4998875;28;20481;-86
2021/01/13 22:53:16;;;;;;;23.67;11.93;;;5.20;99.90;;;;;;5016389;28;20517;-84
2021/01/13 22:55:44;;;;;;;16.93;11.30;;;5.10;99.90;;;;;;5016770;28;20477;-83
2021/01/13 22:58:12;;;;;;;19.03;11.33;;;5.10;99.90;;;;;;4999394;28;20339;-86
2021/01/13 23:00:49;;;;;;;16.47;11.87;;;5.20;99.90;;;;;;5000588;28;20489;-85
2021/01/13 23:06:32;;;;;;;15.20;11.43;;;5.00;99.90;;;;;;5016715;28;20434;-86
2021/01/13 23:09:05;;;;;;;16.23;11.10;;;5.10;99.90;;;;;;5014189;28;20231;-86
2021/01/13 23:11:49;;;;;;;16.63;10.87;;;5.20;99.90;;;;;;5013512;28;20473;-86
2021/01/13 23:17:43;;;;;;;19.43;10.87;;;5.20;99.90;;;;;;5084193;23;20279;-86
2021/01/13 23:20:56;;;;;;;13.13;9.30;;;5.20;99.90;;;;;;5017245;28;20537;-86
2021/01/13 23:31:51;;;;;;;11.10;7.87;;;5.20;99.90;;;;;;5012983;28;20250;-85
2021/01/13 23:37:34;;;;;;;11.80;7.50;;;5.40;99.90;;;;;;5013449;28;20482;-85
2021/01/13 23:40:03;;;;;;;9.33;6.50;;;5.40;99.90;;;;;;5015324;28;20469;-85
2021/01/13 23:42:48;;;;;;;8.80;7.60;;;5.40;99.90;;;;;;5042505;22;20546;-86
2021/01/13 23:48:16;;;;;;;7.73;5.33;;;5.20;99.90;;;;;;5015468;28;20466;-86
2021/01/13 23:51:00;;;;;;;9.93;6.10;;;5.10;99.90;;;;;;4998598;28;20184;-86
2021/01/13 23:53:37;;;;;;;9.37;5.67;;;5.10;99.90;;;;;;5015418;28;20208;-86
2021/01/13 23:56:17;;;;;;;9.60;5.90;;;5.30;99.90;;;;;;4997918;28;20442;-86
